createdAt,value
2024-04-10T00:00:48.796Z,86.05
2024-04-10T00:01:48.815Z,86.05
2024-04-10T00:02:48.769Z,86.05
2024-04-10T00:03:48.868Z,86.53
2024-04-10T00:04:49.013Z,86.72
2024-04-10T00:05:48.792Z,86.63
2024-04-10T00:06:48.758Z,86.53
2024-04-10T00:07:48.866Z,86.63
2024-04-10T00:08:48.742Z,86.34
2024-04-10T00:09:48.747Z,86.91
2024-04-10T00:10:48.798Z,87.39
2024-04-10T00:11:48.790Z,87.39
2024-04-10T00:12:48.756Z,87.87
2024-04-10T00:13:48.807Z,88.25
2024-04-10T00:14:48.749Z,87.87
2024-04-10T00:15:48.747Z,88.44
2024-04-10T00:16:48.793Z,88.63
2024-04-10T00:17:48.907Z,88.63
2024-04-10T00:18:48.899Z,88.54
2024-04-10T00:19:48.750Z,88.25
2024-04-10T00:20:48.715Z,88.25
2024-04-10T00:21:48.749Z,89.11
2024-04-10T00:22:48.782Z,88.92
2024-04-10T00:23:48.699Z,89.49
2024-04-10T00:24:48.704Z,90.06
2024-04-10T00:25:48.713Z,90.06
2024-04-10T00:26:48.694Z,89.68
2024-04-10T00:27:48.700Z,90.06
2024-04-10T00:28:48.751Z,89.87
2024-04-10T00:29:48.676Z,89.87
2024-04-10T00:30:48.686Z,90.35
2024-04-10T00:31:48.705Z,89.59
2024-04-10T00:32:48.880Z,90.06
2024-04-10T00:33:48.830Z,90.25
2024-04-10T00:34:48.762Z,90.54
2024-04-10T00:35:48.661Z,90.73
2024-04-10T00:36:48.664Z,90.45
2024-04-10T00:37:48.709Z,89.87
2024-04-10T00:38:48.674Z,90.06
2024-04-10T00:39:48.649Z,90.06
2024-04-10T00:40:48.700Z,90.45
2024-04-10T00:41:48.649Z,90.16
2024-04-10T00:42:48.642Z,90.92
2024-04-10T00:43:48.738Z,90.54
2024-04-10T00:44:48.630Z,90.35
2024-04-10T00:45:48.629Z,90.64
2024-04-10T00:46:48.709Z,89.59
2024-04-10T00:47:48.758Z,89.11
2024-04-10T00:48:48.817Z,89.49
2024-04-10T00:49:48.793Z,89.20
2024-04-10T00:50:48.608Z,88.73
2024-04-10T00:51:48.616Z,88.92
2024-04-10T00:52:48.658Z,89.01
2024-04-10T00:53:48.601Z,89.01
2024-04-10T00:54:48.597Z,88.92
2024-04-10T00:55:48.619Z,89.01
2024-04-10T00:56:48.610Z,89.20
2024-04-10T00:57:48.591Z,89.39
2024-04-10T00:58:48.642Z,90.16
2024-04-10T00:59:48.595Z,89.68
2024-04-10T01:00:48.645Z,89.97
2024-04-10T01:01:48.620Z,89.30
2024-04-10T01:02:48.620Z,89.49
2024-04-10T01:03:49.007Z,89.59
2024-04-10T01:04:48.668Z,89.39
2024-04-10T01:05:48.599Z,89.20
2024-04-10T01:06:48.567Z,89.49
2024-04-10T01:07:48.610Z,89.20
2024-04-10T01:08:48.582Z,89.39
2024-04-10T01:09:48.549Z,89.11
2024-04-10T01:10:48.634Z,89.49
2024-04-10T01:11:48.650Z,89.11
2024-04-10T01:12:48.553Z,88.92
2024-04-10T01:13:48.621Z,88.25
2024-04-10T01:14:48.542Z,88.15
2024-04-10T01:15:48.536Z,88.06
2024-04-10T01:16:48.674Z,87.77
2024-04-10T01:17:48.635Z,88.15
2024-04-10T01:18:48.610Z,87.58
2024-04-10T01:19:48.589Z,86.91
2024-04-10T01:20:48.516Z,86.63
2024-04-10T01:21:48.513Z,86.53
2024-04-10T01:22:48.598Z,87.01
2024-04-10T01:23:48.503Z,86.91
2024-04-10T01:24:48.511Z,87.20
2024-04-10T01:25:48.526Z,87.29
2024-04-10T01:26:48.490Z,87.29
2024-04-10T01:27:48.506Z,86.91
2024-04-10T01:28:48.694Z,86.91
2024-04-10T01:29:48.478Z,87.29
2024-04-10T01:30:48.476Z,86.91
2024-04-10T01:31:48.544Z,87.29
2024-04-10T01:32:48.653Z,87.10
2024-04-10T01:33:48.537Z,86.63
2024-04-10T01:34:48.594Z,86.87
2024-04-10T01:35:48.476Z,87.01
2024-04-10T01:36:48.475Z,87.01
2024-04-10T01:37:48.555Z,87.20
2024-04-10T01:38:48.487Z,87.29
2024-04-10T01:39:48.451Z,86.91
2024-04-10T01:40:48.466Z,86.63
2024-04-10T01:41:48.479Z,86.34
2024-04-10T01:42:48.446Z,86.24
2024-04-10T01:43:48.458Z,85.77
2024-04-10T01:44:48.432Z,85.58
2024-04-10T01:45:48.429Z,85.38
2024-04-10T01:46:48.495Z,86.05
2024-04-10T01:47:48.616Z,86.05
2024-04-10T01:48:48.573Z,86.05
2024-04-10T01:49:48.415Z,86.05
2024-04-10T01:50:48.427Z,85.86
2024-04-10T01:51:48.422Z,85.58
2024-04-10T01:52:48.446Z,85.00
2024-04-10T01:53:48.415Z,85.38
2024-04-10T01:54:48.402Z,84.81
2024-04-10T01:55:48.439Z,84.23
2024-04-10T01:56:48.407Z,84.43
2024-04-10T01:57:48.399Z,83.95
2024-04-10T01:58:48.414Z,84.14
2024-04-10T01:59:48.384Z,84.23
2024-04-10T02:00:48.403Z,84.23
2024-04-10T02:01:48.419Z,83.95
2024-04-10T02:02:48.482Z,83.95
2024-04-10T02:03:48.452Z,83.86
2024-04-10T02:04:48.440Z,83.86
2024-04-10T02:05:48.440Z,83.00
2024-04-10T02:06:48.399Z,83.47
2024-04-10T02:07:48.509Z,82.81
2024-04-10T02:08:48.364Z,82.32
2024-04-10T02:09:48.354Z,82.71
2024-04-10T02:10:48.465Z,82.61
2024-04-10T02:11:48.422Z,82.61
2024-04-10T02:12:48.347Z,82.23
2024-04-10T02:13:48.439Z,82.32
2024-04-10T02:14:48.346Z,82.81
2024-04-10T02:15:48.340Z,82.81
2024-04-10T02:16:48.546Z,82.71
2024-04-10T02:17:48.443Z,82.81
2024-04-10T02:18:48.328Z,82.23
2024-04-10T02:19:48.343Z,81.66
2024-04-10T02:20:48.364Z,80.90
2024-04-10T02:21:48.322Z,80.84
2024-04-10T02:22:48.364Z,79.98
2024-04-10T02:23:48.310Z,79.69
2024-04-10T02:24:48.309Z,79.36
2024-04-10T02:25:48.360Z,79.36
2024-04-10T02:26:48.313Z,79.17
2024-04-10T02:27:48.305Z,78.31
2024-04-10T02:28:48.352Z,78.99
2024-04-10T02:29:48.298Z,78.89
2024-04-10T02:30:48.310Z,78.31
2024-04-10T02:31:48.308Z,78.51
2024-04-10T02:32:48.486Z,78.51
2024-04-10T02:33:48.392Z,78.51
2024-04-10T02:34:48.353Z,77.74
2024-04-10T02:35:48.289Z,76.98
2024-04-10T02:36:48.274Z,76.50
2024-04-10T02:37:48.322Z,76.40
2024-04-10T02:38:48.272Z,76.69
2024-04-10T02:39:48.267Z,76.40
2024-04-10T02:40:48.287Z,76.40
2024-04-10T02:41:48.256Z,75.83
2024-04-10T02:42:48.365Z,75.64
2024-04-10T02:43:48.310Z,75.16
2024-04-10T02:44:48.242Z,74.88
2024-04-10T02:45:48.274Z,74.49
2024-04-10T02:46:48.251Z,74.69
2024-04-10T02:47:48.330Z,74.69
2024-04-10T02:48:48.267Z,74.98
2024-04-10T02:49:48.467Z,74.98
2024-04-10T02:50:48.235Z,75.10
2024-04-10T02:51:48.215Z,74.73
2024-04-10T02:52:48.252Z,73.83
2024-04-10T02:53:48.215Z,73.67
2024-04-10T02:54:48.221Z,73.00
2024-04-10T02:55:48.236Z,73.16
2024-04-10T02:56:48.218Z,72.97
2024-04-10T02:57:48.222Z,72.39
2024-04-10T02:58:48.247Z,72.72
2024-04-10T02:59:48.207Z,72.01
2024-04-10T03:00:48.263Z,72.30
2024-04-10T03:01:48.279Z,71.76
2024-04-10T03:02:48.382Z,72.30
2024-04-10T03:03:48.278Z,72.24
2024-04-10T03:04:48.230Z,72.33
2024-04-10T03:05:48.199Z,71.86
2024-04-10T03:06:48.176Z,71.76
2024-04-10T03:07:48.197Z,71.67
2024-04-10T03:08:48.181Z,71.67
2024-04-10T03:09:48.164Z,71.47
2024-04-10T03:10:48.279Z,71.19
2024-04-10T03:11:48.210Z,71.38
2024-04-10T03:12:51.273Z,70.52
2024-04-10T03:13:48.173Z,70.14
2024-04-10T03:14:48.163Z,70.14
2024-04-10T03:15:48.156Z,70.10
2024-04-10T03:16:48.219Z,70.29
2024-04-10T03:17:48.265Z,70.29
2024-04-10T03:18:48.214Z,70.20
2024-04-10T03:19:48.157Z,71.06
2024-04-10T03:20:48.168Z,70.58
2024-04-10T03:21:48.146Z,70.29
2024-04-10T03:22:48.207Z,70.20
2024-04-10T03:23:48.168Z,70.29
2024-04-10T03:24:48.118Z,70.67
2024-04-10T03:25:48.156Z,70.96
2024-04-10T03:26:48.108Z,71.06
2024-04-10T03:27:48.110Z,70.96
2024-04-10T03:28:48.124Z,70.58
2024-04-10T03:29:48.112Z,70.77
2024-04-10T03:30:48.102Z,70.77
2024-04-10T03:31:48.160Z,70.77
2024-04-10T03:32:48.162Z,70.67
2024-04-10T03:33:48.150Z,71.25
2024-04-10T03:34:48.128Z,71.06
2024-04-10T03:35:48.089Z,71.38
2024-04-10T03:36:48.078Z,71.38
2024-04-10T03:37:48.114Z,71.19
2024-04-10T03:38:48.083Z,71.28
2024-04-10T03:39:48.076Z,71.00
2024-04-10T03:40:48.117Z,70.52
2024-04-10T03:41:48.087Z,70.14
2024-04-10T03:42:48.096Z,69.66
2024-04-10T03:43:48.113Z,69.37
2024-04-10T03:44:48.072Z,70.04
2024-04-10T03:45:48.067Z,69.27
2024-04-10T03:46:48.127Z,69.47
2024-04-10T03:47:48.199Z,69.85
2024-04-10T03:48:48.139Z,70.04
2024-04-10T03:49:48.119Z,70.33
2024-04-10T03:50:48.130Z,70.33
2024-04-10T03:51:48.066Z,70.14
2024-04-10T03:52:48.079Z,70.42
2024-04-10T03:53:48.053Z,70.14
2024-04-10T03:54:48.024Z,69.66
2024-04-10T03:55:48.046Z,69.47
2024-04-10T03:56:48.010Z,68.99
2024-04-10T03:57:48.290Z,69.18
2024-04-10T03:58:48.019Z,69.56
2024-04-10T03:59:48.031Z,69.85
2024-04-10T04:00:48.019Z,69.95
2024-04-10T04:01:48.064Z,69.47
2024-04-10T04:02:48.060Z,69.47
2024-04-10T04:03:48.093Z,69.37
2024-04-10T04:04:48.086Z,69.66
2024-04-10T04:05:48.038Z,69.47
2024-04-10T04:06:47.983Z,68.99
2024-04-10T04:07:48.009Z,69.66
2024-04-10T04:08:47.978Z,69.27
2024-04-10T04:09:47.983Z,69.66
2024-04-10T04:10:48.186Z,69.56
2024-04-10T04:11:48.012Z,70.04
2024-04-10T04:12:48.037Z,69.66
2024-04-10T04:13:47.994Z,69.56
2024-04-10T04:14:47.971Z,69.27
2024-04-10T04:15:47.977Z,69.66
2024-04-10T04:16:48.027Z,69.66
2024-04-10T04:17:48.165Z,69.76
2024-04-10T04:18:48.019Z,70.23
2024-04-10T04:19:48.068Z,70.33
2024-04-10T04:20:47.950Z,69.95
2024-04-10T04:21:47.963Z,70.14
2024-04-10T04:22:47.975Z,70.23
2024-04-10T04:23:47.948Z,70.14
2024-04-10T04:24:47.940Z,70.33
2024-04-10T04:25:47.990Z,69.85
2024-04-10T04:26:47.940Z,69.56
2024-04-10T04:27:47.942Z,69.47
2024-04-10T04:28:48.024Z,69.56
2024-04-10T04:29:47.911Z,69.76
2024-04-10T04:30:47.913Z,69.85
2024-04-10T04:31:48.032Z,70.42
2024-04-10T04:32:48.003Z,70.42
2024-04-10T04:33:48.030Z,70.52
2024-04-10T04:34:47.918Z,69.43
2024-04-10T04:35:47.906Z,70.42
2024-04-10T04:36:47.900Z,70.61
2024-04-10T04:37:48.011Z,69.95
2024-04-10T04:38:47.899Z,69.85
2024-04-10T04:39:47.906Z,69.56
2024-04-10T04:40:47.935Z,69.56
2024-04-10T04:41:47.872Z,69.85
2024-04-10T04:42:47.898Z,70.71
2024-04-10T04:43:47.934Z,71.00
2024-04-10T04:44:48.011Z,70.61
2024-04-10T04:45:47.863Z,70.23
2024-04-10T04:46:47.982Z,69.95
2024-04-10T04:47:47.966Z,69.76
2024-04-10T04:48:47.919Z,69.66
2024-04-10T04:49:47.941Z,69.66
2024-04-10T04:50:48.210Z,69.76
2024-04-10T04:51:47.875Z,69.62
2024-04-10T04:52:47.955Z,71.44
2024-04-10T04:53:47.855Z,76.16
2024-04-10T04:54:47.843Z,79.50
2024-04-10T04:55:47.879Z,79.02
2024-04-10T04:56:47.837Z,81.07
2024-04-10T04:57:47.843Z,82.70
2024-04-10T04:58:47.839Z,80.30
2024-04-10T04:59:47.840Z,78.78
2024-04-10T05:00:47.870Z,75.47
2024-04-10T05:01:47.848Z,73.94
2024-04-10T05:02:47.864Z,71.55
2024-04-10T05:03:47.952Z,68.84
2024-04-10T05:04:47.818Z,68.35
2024-04-10T05:05:47.841Z,67.59
2024-04-10T05:06:47.812Z,67.88
2024-04-10T05:07:47.813Z,67.78
2024-04-10T05:08:47.795Z,67.78
2024-04-10T05:09:47.791Z,68.16
2024-04-10T05:10:47.801Z,68.16
2024-04-10T05:11:47.865Z,67.97
2024-04-10T05:12:47.778Z,68.51
2024-04-10T05:13:47.829Z,68.70
2024-04-10T05:14:47.779Z,68.70
2024-04-10T05:15:47.842Z,69.18
2024-04-10T05:16:47.774Z,68.90
2024-04-10T05:17:47.889Z,69.09
2024-04-10T05:18:47.765Z,69.66
2024-04-10T05:19:47.775Z,69.56
2024-04-10T05:20:47.799Z,69.76
2024-04-10T05:21:47.752Z,69.85
2024-04-10T05:22:47.759Z,70.04
2024-04-10T05:23:47.760Z,70.33
2024-04-10T05:24:47.745Z,70.52
2024-04-10T05:25:47.743Z,70.71
2024-04-10T05:26:47.754Z,71.09
2024-04-10T05:27:47.741Z,70.90
2024-04-10T05:28:47.730Z,71.44
2024-04-10T05:29:47.738Z,71.25
2024-04-10T05:30:47.738Z,71.34
2024-04-10T05:31:47.733Z,71.72
2024-04-10T05:32:47.866Z,71.82
2024-04-10T05:33:47.921Z,72.39
2024-04-10T05:34:47.741Z,72.33
2024-04-10T05:35:47.795Z,72.53
2024-04-10T05:36:47.726Z,72.81
2024-04-10T05:37:47.741Z,72.24
2024-04-10T05:38:47.714Z,72.62
2024-04-10T05:39:47.698Z,72.33
2024-04-10T05:40:47.694Z,72.33
2024-04-10T05:41:47.737Z,72.43
2024-04-10T05:42:47.716Z,72.33
2024-04-10T05:43:47.700Z,72.33
2024-04-10T05:44:47.703Z,72.53
2024-04-10T05:45:47.678Z,72.14
2024-04-10T05:46:47.738Z,71.86
2024-04-10T05:47:47.793Z,71.34
2024-04-10T05:48:47.746Z,71.63
2024-04-10T05:49:47.671Z,71.63
2024-04-10T05:50:47.707Z,71.53
2024-04-10T05:51:47.662Z,71.53
2024-04-10T05:52:47.652Z,71.34
2024-04-10T05:53:47.703Z,71.25
2024-04-10T05:54:47.722Z,71.15
2024-04-10T05:55:47.653Z,70.87
2024-04-10T05:56:47.652Z,71.25
2024-04-10T05:57:47.653Z,71.47
2024-04-10T05:58:47.639Z,71.38
2024-04-10T05:59:47.658Z,71.19
2024-04-10T06:00:47.683Z,71.09
2024-04-10T06:01:47.634Z,70.81
2024-04-10T06:02:47.672Z,71.19
2024-04-10T06:03:47.781Z,71.28
2024-04-10T06:04:47.617Z,70.71
2024-04-10T06:05:47.760Z,70.81
2024-04-10T06:06:47.634Z,70.42
2024-04-10T06:07:47.615Z,69.76
2024-04-10T06:08:47.619Z,70.14
2024-04-10T06:09:47.611Z,70.04
2024-04-10T06:10:47.625Z,69.95
2024-04-10T06:11:47.692Z,70.04
2024-04-10T06:12:47.620Z,69.95
2024-04-10T06:13:47.602Z,70.14
2024-04-10T06:14:47.595Z,69.09
2024-04-10T06:15:47.680Z,69.76
2024-04-10T06:16:47.607Z,69.47
2024-04-10T06:17:47.680Z,69.27
2024-04-10T06:18:47.595Z,69.09
2024-04-10T06:19:47.592Z,68.80
2024-04-10T06:20:47.644Z,69.66
2024-04-10T06:21:47.579Z,68.80
2024-04-10T06:22:47.574Z,68.99
2024-04-10T06:23:47.596Z,69.37
2024-04-10T06:24:47.562Z,69.47
2024-04-10T06:25:47.557Z,69.85
2024-04-10T06:26:47.683Z,69.95
2024-04-10T06:27:47.564Z,70.04
2024-04-10T06:28:47.563Z,70.04
2024-04-10T06:29:47.581Z,69.82
2024-04-10T06:30:47.561Z,69.76
2024-04-10T06:31:47.560Z,69.09
2024-04-10T06:32:47.680Z,69.85
2024-04-10T06:33:47.743Z,69.09
2024-04-10T06:34:47.535Z,69.66
2024-04-10T06:35:47.573Z,69.95
2024-04-10T06:36:47.535Z,70.23
2024-04-10T06:37:47.553Z,70.14
2024-04-10T06:38:47.524Z,70.14
2024-04-10T06:39:47.533Z,70.42
2024-04-10T06:40:47.530Z,70.42
2024-04-10T06:41:47.525Z,70.14
2024-04-10T06:42:47.554Z,70.23
2024-04-10T06:43:47.547Z,69.66
2024-04-10T06:44:47.503Z,69.85
2024-04-10T06:45:47.503Z,69.85
2024-04-10T06:46:47.539Z,69.66
2024-04-10T06:47:47.716Z,69.66
2024-04-10T06:48:47.717Z,68.99
2024-04-10T06:49:47.510Z,69.47
2024-04-10T06:50:47.561Z,69.56
2024-04-10T06:51:47.488Z,69.95
2024-04-10T06:52:47.489Z,70.52
2024-04-10T06:53:47.502Z,70.71
2024-04-10T06:54:47.501Z,70.81
2024-04-10T06:55:47.487Z,71.00
2024-04-10T06:56:47.475Z,70.90
2024-04-10T06:57:47.489Z,70.04
2024-04-10T06:58:47.493Z,69.89
2024-04-10T06:59:47.523Z,68.84
2024-04-10T07:00:47.514Z,68.99
2024-04-10T07:01:47.505Z,69.18
2024-04-10T07:02:47.580Z,69.18
2024-04-10T07:03:47.606Z,68.90
2024-04-10T07:04:47.511Z,69.09
2024-04-10T07:05:47.602Z,69.66
2024-04-10T07:06:47.460Z,70.04
2024-04-10T07:07:47.443Z,69.76
2024-04-10T07:08:47.511Z,70.33
2024-04-10T07:09:47.534Z,69.70
2024-04-10T07:10:47.505Z,69.41
2024-04-10T07:11:47.534Z,68.93
2024-04-10T07:12:47.442Z,68.64
2024-04-10T07:13:47.454Z,68.64
2024-04-10T07:14:47.481Z,67.88
2024-04-10T07:15:47.544Z,68.07
2024-04-10T07:16:47.522Z,68.74
2024-04-10T07:17:47.495Z,69.21
2024-04-10T07:18:47.469Z,68.93
2024-04-10T07:19:47.567Z,68.74
2024-04-10T07:20:47.743Z,68.55
2024-04-10T07:21:47.421Z,68.93
2024-04-10T07:22:47.446Z,68.26
2024-04-10T07:23:47.451Z,67.78
2024-04-10T07:24:47.409Z,68.16
2024-04-10T07:25:47.414Z,67.69
2024-04-10T07:26:47.456Z,67.40
2024-04-10T07:27:47.425Z,66.83
2024-04-10T07:28:48.229Z,66.92
2024-04-10T07:29:47.421Z,66.83
2024-04-10T07:30:47.438Z,67.11
2024-04-10T07:31:47.411Z,67.21
2024-04-10T07:32:47.720Z,66.92
2024-04-10T07:33:47.595Z,66.54
2024-04-10T07:34:47.475Z,67.11
2024-04-10T07:35:47.418Z,66.83
2024-04-10T07:36:49.879Z,67.69
2024-04-10T07:37:47.480Z,67.11
2024-04-10T07:38:47.399Z,67.30
2024-04-10T07:39:47.376Z,66.44
2024-04-10T07:40:47.375Z,66.25
2024-04-10T07:41:47.651Z,66.63
2024-04-10T07:42:47.376Z,66.44
2024-04-10T07:43:47.369Z,66.35
2024-04-10T07:44:47.457Z,67.11
2024-04-10T07:45:47.409Z,67.30
2024-04-10T07:46:47.381Z,67.30
2024-04-10T07:47:47.556Z,66.92
2024-04-10T07:48:47.843Z,67.21
2024-04-10T07:49:47.378Z,67.21
2024-04-10T07:50:47.372Z,66.86
2024-04-10T07:51:47.396Z,66.92
2024-04-10T07:52:47.356Z,66.54
2024-04-10T07:53:47.369Z,67.24
2024-04-10T07:54:47.375Z,66.47
2024-04-10T07:55:47.356Z,66.57
2024-04-10T07:56:47.437Z,66.57
2024-04-10T07:57:47.348Z,67.05
2024-04-10T07:58:47.380Z,67.43
2024-04-10T07:59:47.363Z,66.38
2024-04-10T08:00:47.439Z,66.76
2024-04-10T08:01:47.372Z,66.47
2024-04-10T08:02:47.539Z,67.05
2024-04-10T08:03:47.563Z,66.96
2024-04-10T08:04:47.382Z,67.14
2024-04-10T08:05:47.476Z,66.57
2024-04-10T08:06:47.348Z,67.02
2024-04-10T08:07:47.358Z,65.90
2024-04-10T08:08:47.416Z,66.25
2024-04-10T08:09:47.384Z,66.44
2024-04-10T08:10:47.383Z,66.47
2024-04-10T08:11:47.517Z,66.35
2024-04-10T08:12:47.361Z,66.25
2024-04-10T08:13:47.487Z,65.87
2024-04-10T08:14:47.424Z,66.44
2024-04-10T08:15:47.382Z,66.25
2024-04-10T08:16:47.437Z,66.44
2024-04-10T08:17:47.398Z,66.44
2024-04-10T08:18:47.754Z,66.35
2024-04-10T08:19:47.331Z,66.25
2024-04-10T08:20:47.332Z,66.73
2024-04-10T08:21:47.328Z,66.92
2024-04-10T08:22:47.357Z,66.92
2024-04-10T08:23:47.617Z,66.92
2024-04-10T08:24:47.329Z,67.69
2024-04-10T08:25:47.337Z,67.59
2024-04-10T08:26:47.377Z,67.59
2024-04-10T08:27:47.362Z,67.69
2024-04-10T08:28:48.170Z,68.16
2024-04-10T08:29:47.477Z,68.26
2024-04-10T08:30:47.331Z,67.53
2024-04-10T08:31:47.310Z,67.72
2024-04-10T08:32:47.548Z,67.91
2024-04-10T08:33:47.821Z,67.43
2024-04-10T08:34:47.535Z,66.47
2024-04-10T08:35:47.312Z,66.28
2024-04-10T08:36:47.316Z,66.57
2024-04-10T08:37:47.315Z,66.96
2024-04-10T08:38:47.320Z,67.34
2024-04-10T08:39:47.299Z,66.67
2024-04-10T08:40:47.372Z,66.38
2024-04-10T08:41:47.300Z,65.71
2024-04-10T08:42:47.399Z,64.85
2024-04-10T08:43:47.309Z,64.66
2024-04-10T08:44:47.337Z,64.47
2024-04-10T08:45:47.317Z,64.09
2024-04-10T08:46:47.388Z,64.37
2024-04-10T08:47:47.479Z,63.89
2024-04-10T08:48:47.574Z,64.47
2024-04-10T08:49:47.299Z,63.89
2024-04-10T08:50:47.334Z,63.99
2024-04-10T08:51:47.339Z,64.28
2024-04-10T08:52:47.299Z,64.28
2024-04-10T08:53:47.283Z,64.18
2024-04-10T08:54:48.574Z,64.09
2024-04-10T08:55:54.633Z,64.66
2024-04-10T08:56:47.296Z,64.18
2024-04-10T08:57:47.325Z,64.37
2024-04-10T08:58:47.389Z,64.18
2024-04-10T08:59:47.371Z,64.09
2024-04-10T09:00:47.454Z,63.13
2024-04-10T09:01:48.930Z,63.42
2024-04-10T09:02:47.387Z,63.13
2024-04-10T09:03:47.364Z,63.89
2024-04-10T09:04:47.710Z,63.70
2024-04-10T09:05:47.280Z,63.73
2024-04-10T09:06:47.415Z,63.83
2024-04-10T09:07:47.499Z,64.59
2024-04-10T09:08:47.312Z,63.35
2024-04-10T09:09:47.334Z,63.35
2024-04-10T09:10:47.281Z,62.68
2024-04-10T09:11:47.336Z,61.72
2024-04-10T09:12:47.269Z,62.01
2024-04-10T09:13:47.271Z,62.55
2024-04-10T09:14:47.282Z,62.20
2024-04-10T09:15:47.286Z,62.46
2024-04-10T09:16:47.337Z,62.94
2024-04-10T09:17:47.291Z,63.51
2024-04-10T09:18:47.383Z,64.18
2024-04-10T09:19:48.441Z,63.16
2024-04-10T09:20:47.271Z,64.31
2024-04-10T09:21:47.284Z,64.02
2024-04-10T09:22:47.268Z,63.16
2024-04-10T09:23:47.301Z,62.40
2024-04-10T09:24:47.291Z,63.06
2024-04-10T09:25:47.766Z,63.26
2024-04-10T09:26:47.270Z,63.26
2024-04-10T09:27:47.271Z,62.97
2024-04-10T09:28:47.263Z,63.03
2024-04-10T09:29:47.388Z,63.93
2024-04-10T09:30:47.294Z,64.31
2024-04-10T09:31:47.271Z,64.69
2024-04-10T09:32:47.389Z,64.40
2024-04-10T09:33:47.329Z,63.93
2024-04-10T09:34:47.314Z,63.83
2024-04-10T09:35:47.292Z,63.86
2024-04-10T09:36:47.237Z,62.90
2024-04-10T09:37:47.916Z,62.43
2024-04-10T09:38:47.246Z,62.23
2024-04-10T09:39:47.261Z,61.63
2024-04-10T09:40:47.271Z,62.59
2024-04-10T09:41:47.307Z,63.35
2024-04-10T09:42:47.277Z,64.34
2024-04-10T09:43:47.246Z,63.86
2024-04-10T09:44:47.528Z,63.10
2024-04-10T09:45:47.259Z,62.33
2024-04-10T09:46:47.315Z,62.90
2024-04-10T09:47:47.523Z,62.04
2024-04-10T09:48:49.030Z,62.33
2024-04-10T09:49:47.230Z,62.43
2024-04-10T09:50:47.297Z,62.90
2024-04-10T09:51:47.246Z,62.62
2024-04-10T09:52:47.238Z,63.39
2024-04-10T09:53:47.277Z,62.43
2024-04-10T09:54:47.217Z,62.33
2024-04-10T09:55:47.241Z,62.33
2024-04-10T09:56:47.277Z,62.43
2024-04-10T09:57:47.294Z,61.28
2024-04-10T09:58:47.243Z,59.55
2024-04-10T09:59:49.459Z,59.05
2024-04-10T10:00:47.245Z,59.52
2024-04-10T10:01:47.221Z,60.00
2024-04-10T10:02:47.274Z,61.25
2024-04-10T10:03:47.554Z,61.05
2024-04-10T10:04:47.371Z,61.34
2024-04-10T10:05:48.416Z,62.20
2024-04-10T10:06:47.200Z,62.59
2024-04-10T10:07:47.211Z,62.68
2024-04-10T10:08:47.287Z,62.59
2024-04-10T10:09:47.195Z,62.30
2024-04-10T10:10:47.266Z,62.30
2024-04-10T10:11:47.277Z,63.06
2024-04-10T10:12:47.195Z,62.40
2024-04-10T10:13:47.191Z,62.30
2024-04-10T10:14:47.352Z,62.68
2024-04-10T10:15:47.265Z,63.16
2024-04-10T10:16:47.215Z,63.93
2024-04-10T10:17:54.001Z,63.83
2024-04-10T10:18:47.356Z,63.96
2024-04-10T10:19:47.281Z,63.29
2024-04-10T10:20:47.260Z,61.18
2024-04-10T10:21:47.189Z,60.41
2024-04-10T10:22:47.246Z,60.80
2024-04-10T10:23:47.247Z,60.61
2024-04-10T10:24:47.298Z,60.48
2024-04-10T10:25:47.188Z,61.25
2024-04-10T10:26:47.251Z,61.15
2024-04-10T10:27:47.199Z,61.72
2024-04-10T10:28:47.199Z,61.05
2024-04-10T10:29:47.257Z,61.15
2024-04-10T10:30:47.187Z,61.15
2024-04-10T10:31:47.167Z,61.15
2024-04-10T10:32:47.306Z,60.48
2024-04-10T10:33:47.299Z,61.25
2024-04-10T10:34:47.308Z,60.96
2024-04-10T10:35:47.215Z,60.96
2024-04-10T10:36:47.634Z,61.25
2024-04-10T10:37:47.175Z,61.05
2024-04-10T10:38:47.212Z,61.25
2024-04-10T10:39:47.168Z,61.25
2024-04-10T10:40:47.162Z,61.72
2024-04-10T10:41:47.345Z,62.30
2024-04-10T10:42:47.156Z,62.30
2024-04-10T10:43:47.186Z,62.01
2024-04-10T10:44:47.286Z,62.01
2024-04-10T10:45:47.199Z,62.01
2024-04-10T10:46:47.169Z,61.63
2024-04-10T10:47:47.290Z,62.11
2024-04-10T10:48:47.210Z,62.77
2024-04-10T10:49:47.250Z,62.20
2024-04-10T10:50:47.265Z,62.01
2024-04-10T10:51:47.195Z,62.30
2024-04-10T10:52:47.150Z,62.01
2024-04-10T10:53:47.238Z,62.11
2024-04-10T10:54:47.160Z,61.72
2024-04-10T10:55:47.167Z,62.01
2024-04-10T10:56:47.244Z,62.68
2024-04-10T10:57:47.167Z,62.33
2024-04-10T10:58:47.188Z,62.14
2024-04-10T10:59:47.268Z,61.57
2024-04-10T11:00:47.199Z,61.72
2024-04-10T11:01:47.127Z,61.54
2024-04-10T11:02:47.348Z,61.54
2024-04-10T11:03:47.356Z,61.63
2024-04-10T11:04:47.261Z,62.30
2024-04-10T11:05:47.336Z,62.04
2024-04-10T11:06:47.138Z,60.89
2024-04-10T11:07:47.128Z,59.72
2024-04-10T11:08:47.150Z,59.14
2024-04-10T11:09:47.166Z,59.05
2024-04-10T11:10:47.195Z,59.05
2024-04-10T11:11:47.429Z,59.81
2024-04-10T11:12:47.161Z,60.19
2024-04-10T11:13:47.150Z,61.05
2024-04-10T11:14:47.160Z,61.25
2024-04-10T11:15:47.181Z,60.29
2024-04-10T11:16:47.265Z,60.58
2024-04-10T11:17:47.171Z,61.25
2024-04-10T11:18:47.179Z,61.15
2024-04-10T11:19:51.253Z,61.34
2024-04-10T11:20:47.241Z,60.67
2024-04-10T11:21:47.099Z,60.51
2024-04-10T11:22:47.110Z,59.84
2024-04-10T11:23:47.162Z,59.45
2024-04-10T11:24:47.121Z,59.65
2024-04-10T11:25:47.128Z,58.86
2024-04-10T11:26:47.150Z,58.79
2024-04-10T11:27:47.122Z,59.45
2024-04-10T11:28:47.114Z,60.32
2024-04-10T11:29:47.265Z,60.51
2024-04-10T11:30:47.113Z,60.41
2024-04-10T11:31:47.155Z,59.52
2024-04-10T11:32:47.184Z,59.33
2024-04-10T11:33:47.384Z,59.52
2024-04-10T11:34:47.132Z,58.66
2024-04-10T11:35:48.731Z,58.56
2024-04-10T11:36:47.149Z,58.95
2024-04-10T11:37:47.103Z,58.18
2024-04-10T11:38:47.152Z,57.04
2024-04-10T11:39:47.201Z,56.37
2024-04-10T11:40:47.091Z,57.13
2024-04-10T11:41:47.114Z,57.23
2024-04-10T11:42:47.140Z,57.51
2024-04-10T11:43:47.122Z,58.28
2024-04-10T11:44:47.199Z,58.76
2024-04-10T11:45:47.087Z,58.37
2024-04-10T11:46:47.182Z,58.28
2024-04-10T11:47:47.382Z,58.18
2024-04-10T11:48:47.299Z,58.56
2024-04-10T11:49:47.097Z,57.80
2024-04-10T11:50:47.179Z,56.97
2024-04-10T11:51:47.071Z,57.26
2024-04-10T11:52:47.130Z,56.97
2024-04-10T11:53:47.157Z,56.39
2024-04-10T11:54:47.066Z,55.91
2024-04-10T11:55:47.087Z,55.12
2024-04-10T11:56:47.301Z,55.31
2024-04-10T11:57:47.096Z,55.51
2024-04-10T11:58:47.084Z,55.51
2024-04-10T11:59:47.102Z,55.79
2024-04-10T12:00:47.146Z,56.56
2024-04-10T12:01:47.072Z,56.75
2024-04-10T12:02:47.198Z,57.13
2024-04-10T12:03:47.172Z,57.23
2024-04-10T12:04:47.093Z,57.70
2024-04-10T12:05:47.108Z,57.70
2024-04-10T12:06:47.089Z,58.18
2024-04-10T12:07:47.076Z,57.32
2024-04-10T12:08:47.080Z,56.56
2024-04-10T12:09:47.120Z,56.08
2024-04-10T12:10:47.077Z,56.08
2024-04-10T12:11:47.171Z,56.56
2024-04-10T12:12:47.192Z,57.04
2024-04-10T12:13:47.054Z,57.23
2024-04-10T12:14:47.062Z,57.23
2024-04-10T12:15:47.043Z,57.70
2024-04-10T12:16:47.119Z,57.99
2024-04-10T12:17:47.125Z,57.32
2024-04-10T12:18:47.078Z,57.04
2024-04-10T12:19:47.039Z,57.39
2024-04-10T12:20:47.061Z,57.58
2024-04-10T12:21:47.055Z,58.28
2024-04-10T12:22:47.019Z,58.18
2024-04-10T12:23:47.076Z,58.56
2024-04-10T12:26:19.078Z,57.80
2024-04-10T12:27:18.983Z,58.56
2024-04-10T12:29:12.641Z,58.37
2024-04-10T12:30:12.553Z,58.40
2024-04-10T12:32:07.068Z,58.22
2024-04-10T12:33:05.921Z,56.30
2024-04-10T12:34:58.650Z,54.57
2024-04-10T12:35:59.614Z,54.45
2024-04-10T12:37:52.209Z,55.51
2024-04-10T12:38:52.073Z,56.08
2024-04-10T12:39:51.985Z,56.17
2024-04-10T12:40:51.917Z,56.94
2024-04-10T12:41:51.991Z,57.61
2024-04-10T12:42:51.930Z,58.09
2024-04-10T12:43:51.992Z,58.37
2024-04-10T12:44:51.943Z,58.09
2024-04-10T12:45:52.028Z,58.09
2024-04-10T12:46:51.914Z,58.18
2024-04-10T12:47:51.971Z,57.80
2024-04-10T12:48:52.029Z,57.99
2024-04-10T12:49:51.952Z,58.47
2024-04-10T12:50:51.942Z,57.80
2024-04-10T12:51:51.909Z,58.37
2024-04-10T12:52:51.910Z,58.47
2024-04-10T12:53:51.956Z,58.95
2024-04-10T12:54:51.910Z,59.43
2024-04-10T12:55:51.931Z,58.86
2024-04-10T12:56:52.076Z,58.66
2024-04-10T12:57:51.996Z,59.14